sensor_id;sensor_type;location;lat;lon;timestamp;P1;durP1;ratioP1;P2;durP2;ratioP2
42478;SDS011;28110;47.080;9.476;2022-08-24T00:01:14;3.00;;;2.10;;
42478;SDS011;28110;47.080;9.476;2022-08-24T00:03:40;2.83;;;2.13;;
42478;SDS011;28110;47.080;9.476;2022-08-24T00:06:08;4.43;;;2.30;;
42478;SDS011;28110;47.080;9.476;2022-08-24T00:08:37;2.47;;;2.20;;
42478;SDS011;28110;47.080;9.476;2022-08-24T00:11:03;4.07;;;2.22;;
42478;SDS011;28110;47.080;9.476;2022-08-24T00:13:30;2.97;;;2.08;;
42478;SDS011;28110;47.080;9.476;2022-08-24T00:15:55;4.13;;;2.07;;
42478;SDS011;28110;47.080;9.476;2022-08-24T00:18:21;3.38;;;2.22;;
42478;SDS011;28110;47.080;9.476;2022-08-24T00:20:47;4.30;;;2.10;;
42478;SDS011;28110;47.080;9.476;2022-08-24T00:23:13;4.32;;;2.10;;
42478;SDS011;28110;47.080;9.476;2022-08-24T00:25:39;4.13;;;1.88;;
42478;SDS011;28110;47.080;9.476;2022-08-24T00:28:05;3.17;;;2.10;;
42478;SDS011;28110;47.080;9.476;2022-08-24T00:30:31;3.75;;;2.20;;
42478;SDS011;28110;47.080;9.476;2022-08-24T00:32:57;3.92;;;2.03;;
42478;SDS011;28110;47.080;9.476;2022-08-24T00:35:23;4.33;;;2.50;;
42478;SDS011;28110;47.080;9.476;2022-08-24T00:37:49;5.15;;;2.40;;
42478;SDS011;28110;47.080;9.476;2022-08-24T00:40:18;5.03;;;2.00;;
42478;SDS011;28110;47.080;9.476;2022-08-24T00:42:44;3.17;;;2.10;;
42478;SDS011;28110;47.080;9.476;2022-08-24T00:45:10;3.92;;;2.00;;
42478;SDS011;28110;47.080;9.476;2022-08-24T00:47:41;6.40;;;2.17;;
42478;SDS011;28110;47.080;9.476;2022-08-24T00:50:13;2.97;;;1.83;;
42478;SDS011;28110;47.080;9.476;2022-08-24T00:52:48;2.65;;;1.73;;
42478;SDS011;28110;47.080;9.476;2022-08-24T00:55:24;5.15;;;2.00;;
42478;SDS011;28110;47.080;9.476;2022-08-24T00:57:57;2.35;;;1.83;;
42478;SDS011;28110;47.080;9.476;2022-08-24T01:00:29;4.43;;;2.20;;
42478;SDS011;28110;47.080;9.476;2022-08-24T01:02:59;2.73;;;1.93;;
42478;SDS011;28110;47.080;9.476;2022-08-24T01:05:31;3.72;;;2.10;;
42478;SDS011;28110;47.080;9.476;2022-08-24T01:08:00;2.95;;;1.90;;
42478;SDS011;28110;47.080;9.476;2022-08-24T01:10:28;3.78;;;2.03;;
42478;SDS011;28110;47.080;9.476;2022-08-24T01:12:57;3.08;;;2.10;;
42478;SDS011;28110;47.080;9.476;2022-08-24T01:15:32;2.87;;;1.90;;
42478;SDS011;28110;47.080;9.476;2022-08-24T01:18:00;5.72;;;2.20;;
42478;SDS011;28110;47.080;9.476;2022-08-24T01:20:51;4.00;;;2.00;;
42478;SDS011;28110;47.080;9.476;2022-08-24T01:23:30;3.63;;;2.00;;
42478;SDS011;28110;47.080;9.476;2022-08-24T01:26:11;4.53;;;2.38;;
42478;SDS011;28110;47.080;9.476;2022-08-24T01:28:42;4.57;;;2.10;;
42478;SDS011;28110;47.080;9.476;2022-08-24T01:31:11;2.47;;;1.85;;
42478;SDS011;28110;47.080;9.476;2022-08-24T01:33:36;2.70;;;2.08;;
42478;SDS011;28110;47.080;9.476;2022-08-24T01:36:04;4.13;;;2.07;;
42478;SDS011;28110;47.080;9.476;2022-08-24T01:38:46;3.33;;;1.88;;
42478;SDS011;28110;47.080;9.476;2022-08-24T01:41:13;4.35;;;2.17;;
42478;SDS011;28110;47.080;9.476;2022-08-24T01:43:39;4.40;;;2.20;;
42478;SDS011;28110;47.080;9.476;2022-08-24T01:46:04;2.40;;;1.88;;
42478;SDS011;28110;47.080;9.476;2022-08-24T01:48:30;5.68;;;2.25;;
42478;SDS011;28110;47.080;9.476;2022-08-24T01:50:56;2.60;;;2.20;;
42478;SDS011;28110;47.080;9.476;2022-08-24T01:53:22;3.97;;;2.20;;
42478;SDS011;28110;47.080;9.476;2022-08-24T01:55:47;2.72;;;2.08;;
42478;SDS011;28110;47.080;9.476;2022-08-24T01:58:14;4.47;;;1.95;;
42478;SDS011;28110;47.080;9.476;2022-08-24T02:00:39;3.37;;;2.30;;
42478;SDS011;28110;47.080;9.476;2022-08-24T02:03:05;2.72;;;1.98;;
42478;SDS011;28110;47.080;9.476;2022-08-24T02:05:32;2.75;;;2.05;;
42478;SDS011;28110;47.080;9.476;2022-08-24T02:07:58;4.55;;;2.25;;
42478;SDS011;28110;47.080;9.476;2022-08-24T02:10:24;3.47;;;2.57;;
42478;SDS011;28110;47.080;9.476;2022-08-24T02:12:50;3.97;;;2.13;;
42478;SDS011;28110;47.080;9.476;2022-08-24T02:15:27;2.58;;;2.20;;
42478;SDS011;28110;47.080;9.476;2022-08-24T02:17:55;3.33;;;2.00;;
42478;SDS011;28110;47.080;9.476;2022-08-24T02:20:21;3.53;;;2.00;;
42478;SDS011;28110;47.080;9.476;2022-08-24T02:22:48;3.33;;;2.35;;
42478;SDS011;28110;47.080;9.476;2022-08-24T02:25:15;3.85;;;2.30;;
42478;SDS011;28110;47.080;9.476;2022-08-24T02:27:41;3.40;;;2.05;;
42478;SDS011;28110;47.080;9.476;2022-08-24T02:30:07;3.60;;;2.10;;
42478;SDS011;28110;47.080;9.476;2022-08-24T02:32:33;2.60;;;2.00;;
42478;SDS011;28110;47.080;9.476;2022-08-24T02:34:59;2.70;;;2.00;;
42478;SDS011;28110;47.080;9.476;2022-08-24T02:37:24;2.60;;;2.20;;
42478;SDS011;28110;47.080;9.476;2022-08-24T02:39:50;4.60;;;2.07;;
42478;SDS011;28110;47.080;9.476;2022-08-24T02:42:16;2.80;;;2.08;;
42478;SDS011;28110;47.080;9.476;2022-08-24T02:44:42;5.17;;;2.10;;
42478;SDS011;28110;47.080;9.476;2022-08-24T02:47:07;4.55;;;2.00;;
42478;SDS011;28110;47.080;9.476;2022-08-24T02:49:34;4.28;;;2.10;;
42478;SDS011;28110;47.080;9.476;2022-08-24T02:51:59;3.20;;;2.17;;
42478;SDS011;28110;47.080;9.476;2022-08-24T02:54:25;4.67;;;1.90;;
42478;SDS011;28110;47.080;9.476;2022-08-24T02:56:51;3.55;;;2.13;;
42478;SDS011;28110;47.080;9.476;2022-08-24T02:59:17;2.10;;;1.90;;
42478;SDS011;28110;47.080;9.476;2022-08-24T03:01:43;5.85;;;2.15;;
42478;SDS011;28110;47.080;9.476;2022-08-24T03:04:09;3.67;;;2.00;;
42478;SDS011;28110;47.080;9.476;2022-08-24T03:06:35;4.03;;;2.10;;
42478;SDS011;28110;47.080;9.476;2022-08-24T03:09:01;3.47;;;1.97;;
42478;SDS011;28110;47.080;9.476;2022-08-24T03:11:27;2.55;;;1.88;;
42478;SDS011;28110;47.080;9.476;2022-08-24T03:13:52;2.53;;;2.07;;
42478;SDS011;28110;47.080;9.476;2022-08-24T03:16:19;4.57;;;2.03;;
42478;SDS011;28110;47.080;9.476;2022-08-24T03:18:44;2.27;;;2.00;;
42478;SDS011;28110;47.080;9.476;2022-08-24T03:21:10;3.80;;;2.13;;
42478;SDS011;28110;47.080;9.476;2022-08-24T03:23:35;2.97;;;1.93;;
42478;SDS011;28110;47.080;9.476;2022-08-24T03:26:02;2.72;;;2.00;;
42478;SDS011;28110;47.080;9.476;2022-08-24T03:28:27;4.80;;;2.10;;
42478;SDS011;28110;47.080;9.476;2022-08-24T03:30:53;9.07;;;2.30;;
42478;SDS011;28110;47.080;9.476;2022-08-24T03:33:19;4.90;;;2.27;;
42478;SDS011;28110;47.080;9.476;2022-08-24T03:35:45;2.70;;;2.08;;
42478;SDS011;28110;47.080;9.476;2022-08-24T03:38:11;3.67;;;1.98;;
42478;SDS011;28110;47.080;9.476;2022-08-24T03:40:37;3.35;;;2.20;;
42478;SDS011;28110;47.080;9.476;2022-08-24T03:43:04;4.47;;;2.20;;
42478;SDS011;28110;47.080;9.476;2022-08-24T03:45:30;6.05;;;2.00;;
42478;SDS011;28110;47.080;9.476;2022-08-24T03:47:56;3.75;;;2.20;;
42478;SDS011;28110;47.080;9.476;2022-08-24T03:50:22;4.80;;;2.13;;
42478;SDS011;28110;47.080;9.476;2022-08-24T03:52:48;2.58;;;1.98;;
42478;SDS011;28110;47.080;9.476;2022-08-24T03:55:14;2.90;;;2.10;;
42478;SDS011;28110;47.080;9.476;2022-08-24T03:57:40;3.03;;;2.23;;
42478;SDS011;28110;47.080;9.476;2022-08-24T04:00:07;2.43;;;2.00;;
42478;SDS011;28110;47.080;9.476;2022-08-24T04:02:34;2.63;;;2.00;;
42478;SDS011;28110;47.080;9.476;2022-08-24T04:05:00;2.88;;;1.98;;
42478;SDS011;28110;47.080;9.476;2022-08-24T04:07:25;2.23;;;1.87;;
42478;SDS011;28110;47.080;9.476;2022-08-24T04:09:51;2.97;;;2.10;;
42478;SDS011;28110;47.080;9.476;2022-08-24T04:12:17;3.00;;;2.23;;
42478;SDS011;28110;47.080;9.476;2022-08-24T04:14:43;4.15;;;2.10;;
42478;SDS011;28110;47.080;9.476;2022-08-24T04:17:09;2.93;;;2.33;;
42478;SDS011;28110;47.080;9.476;2022-08-24T04:19:36;2.65;;;2.08;;
42478;SDS011;28110;47.080;9.476;2022-08-24T04:22:02;6.38;;;2.25;;
42478;SDS011;28110;47.080;9.476;2022-08-24T04:24:28;2.30;;;1.90;;
42478;SDS011;28110;47.080;9.476;2022-08-24T04:26:54;2.60;;;2.10;;
42478;SDS011;28110;47.080;9.476;2022-08-24T04:29:19;5.68;;;2.40;;
42478;SDS011;28110;47.080;9.476;2022-08-24T04:31:45;3.87;;;2.10;;
42478;SDS011;28110;47.080;9.476;2022-08-24T04:34:12;3.65;;;2.35;;
42478;SDS011;28110;47.080;9.476;2022-08-24T04:36:39;6.03;;;2.00;;
42478;SDS011;28110;47.080;9.476;2022-08-24T04:39:06;3.40;;;2.17;;
42478;SDS011;28110;47.080;9.476;2022-08-24T04:41:32;3.60;;;2.47;;
42478;SDS011;28110;47.080;9.476;2022-08-24T04:43:58;2.70;;;2.00;;
42478;SDS011;28110;47.080;9.476;2022-08-24T04:46:24;2.95;;;2.13;;
42478;SDS011;28110;47.080;9.476;2022-08-24T04:48:50;3.13;;;1.90;;
42478;SDS011;28110;47.080;9.476;2022-08-24T04:51:17;6.18;;;2.40;;
42478;SDS011;28110;47.080;9.476;2022-08-24T04:53:44;5.63;;;2.33;;
42478;SDS011;28110;47.080;9.476;2022-08-24T04:56:12;3.60;;;2.17;;
42478;SDS011;28110;47.080;9.476;2022-08-24T04:58:40;2.75;;;2.00;;
42478;SDS011;28110;47.080;9.476;2022-08-24T05:01:06;3.40;;;2.03;;
42478;SDS011;28110;47.080;9.476;2022-08-24T05:03:32;3.88;;;1.90;;
42478;SDS011;28110;47.080;9.476;2022-08-24T05:05:58;2.42;;;2.10;;
42478;SDS011;28110;47.080;9.476;2022-08-24T05:08:23;3.20;;;2.33;;
42478;SDS011;28110;47.080;9.476;2022-08-24T05:10:49;3.60;;;2.50;;
42478;SDS011;28110;47.080;9.476;2022-08-24T05:13:15;3.65;;;2.28;;
42478;SDS011;28110;47.080;9.476;2022-08-24T05:15:43;6.03;;;2.50;;
42478;SDS011;28110;47.080;9.476;2022-08-24T05:18:10;2.67;;;2.00;;
42478;SDS011;28110;47.080;9.476;2022-08-24T05:20:44;3.03;;;2.05;;
42478;SDS011;28110;47.080;9.476;2022-08-24T05:23:11;5.93;;;2.30;;
42478;SDS011;28110;47.080;9.476;2022-08-24T05:25:38;3.00;;;2.33;;
42478;SDS011;28110;47.080;9.476;2022-08-24T05:28:04;4.97;;;2.50;;
42478;SDS011;28110;47.080;9.476;2022-08-24T05:30:30;3.97;;;2.10;;
42478;SDS011;28110;47.080;9.476;2022-08-24T05:32:56;3.72;;;2.40;;
42478;SDS011;28110;47.080;9.476;2022-08-24T05:35:22;7.00;;;2.43;;
42478;SDS011;28110;47.080;9.476;2022-08-24T05:37:48;2.80;;;2.10;;
42478;SDS011;28110;47.080;9.476;2022-08-24T05:40:14;5.50;;;2.20;;
42478;SDS011;28110;47.080;9.476;2022-08-24T05:42:42;4.35;;;2.30;;
42478;SDS011;28110;47.080;9.476;2022-08-24T05:45:08;4.95;;;2.20;;
42478;SDS011;28110;47.080;9.476;2022-08-24T05:47:35;4.25;;;2.13;;
42478;SDS011;28110;47.080;9.476;2022-08-24T05:50:01;5.63;;;2.13;;
42478;SDS011;28110;47.080;9.476;2022-08-24T05:52:27;3.70;;;2.20;;
42478;SDS011;28110;47.080;9.476;2022-08-24T05:54:54;2.83;;;2.05;;
42478;SDS011;28110;47.080;9.476;2022-08-24T05:57:21;4.05;;;2.25;;
42478;SDS011;28110;47.080;9.476;2022-08-24T05:59:48;3.30;;;2.50;;
42478;SDS011;28110;47.080;9.476;2022-08-24T06:02:15;4.90;;;2.47;;
42478;SDS011;28110;47.080;9.476;2022-08-24T06:04:41;4.03;;;2.13;;
42478;SDS011;28110;47.080;9.476;2022-08-24T06:07:09;2.88;;;2.08;;
42478;SDS011;28110;47.080;9.476;2022-08-24T06:09:36;3.70;;;2.20;;
42478;SDS011;28110;47.080;9.476;2022-08-24T06:12:05;3.00;;;1.95;;
42478;SDS011;28110;47.080;9.476;2022-08-24T06:14:32;2.70;;;2.10;;
42478;SDS011;28110;47.080;9.476;2022-08-24T06:16:58;4.18;;;2.20;;
42478;SDS011;28110;47.080;9.476;2022-08-24T06:19:25;3.47;;;2.03;;
42478;SDS011;28110;47.080;9.476;2022-08-24T06:21:51;3.07;;;2.23;;
42478;SDS011;28110;47.080;9.476;2022-08-24T06:24:17;4.55;;;2.13;;
42478;SDS011;28110;47.080;9.476;2022-08-24T06:27:04;2.70;;;2.20;;
42478;SDS011;28110;47.080;9.476;2022-08-24T06:29:49;3.50;;;2.08;;
42478;SDS011;28110;47.080;9.476;2022-08-24T06:32:22;3.33;;;2.30;;
42478;SDS011;28110;47.080;9.476;2022-08-24T06:34:49;3.13;;;2.40;;
42478;SDS011;28110;47.080;9.476;2022-08-24T06:37:15;3.22;;;2.20;;
42478;SDS011;28110;47.080;9.476;2022-08-24T06:39:41;4.90;;;2.23;;
42478;SDS011;28110;47.080;9.476;2022-08-24T06:42:06;5.17;;;2.23;;
42478;SDS011;28110;47.080;9.476;2022-08-24T06:44:32;3.70;;;2.00;;
42478;SDS011;28110;47.080;9.476;2022-08-24T06:46:57;4.05;;;2.10;;
42478;SDS011;28110;47.080;9.476;2022-08-24T06:49:23;2.47;;;2.00;;
42478;SDS011;28110;47.080;9.476;2022-08-24T06:51:49;4.00;;;2.30;;
42478;SDS011;28110;47.080;9.476;2022-08-24T06:54:15;3.77;;;1.97;;
42478;SDS011;28110;47.080;9.476;2022-08-24T06:56:41;4.30;;;2.15;;
42478;SDS011;28110;47.080;9.476;2022-08-24T06:59:07;4.32;;;2.47;;
42478;SDS011;28110;47.080;9.476;2022-08-24T07:01:32;4.23;;;2.37;;
42478;SDS011;28110;47.080;9.476;2022-08-24T07:03:58;6.15;;;2.80;;
42478;SDS011;28110;47.080;9.476;2022-08-24T07:06:24;5.20;;;2.10;;
42478;SDS011;28110;47.080;9.476;2022-08-24T07:08:50;8.05;;;2.50;;
42478;SDS011;28110;47.080;9.476;2022-08-24T07:11:17;8.50;;;2.33;;
42478;SDS011;28110;47.080;9.476;2022-08-24T07:13:43;6.93;;;2.60;;
42478;SDS011;28110;47.080;9.476;2022-08-24T07:16:11;7.88;;;2.58;;
42478;SDS011;28110;47.080;9.476;2022-08-24T07:18:37;5.10;;;2.45;;
42478;SDS011;28110;47.080;9.476;2022-08-24T07:21:03;5.07;;;2.73;;
42478;SDS011;28110;47.080;9.476;2022-08-24T07:23:29;5.20;;;2.53;;
42478;SDS011;28110;47.080;9.476;2022-08-24T07:25:55;5.65;;;2.08;;
42478;SDS011;28110;47.080;9.476;2022-08-24T07:28:21;6.33;;;2.50;;
42478;SDS011;28110;47.080;9.476;2022-08-24T07:30:47;3.63;;;2.58;;
42478;SDS011;28110;47.080;9.476;2022-08-24T07:33:12;3.63;;;2.40;;
42478;SDS011;28110;47.080;9.476;2022-08-24T07:35:38;7.97;;;2.40;;
42478;SDS011;28110;47.080;9.476;2022-08-24T07:38:05;4.13;;;2.30;;
42478;SDS011;28110;47.080;9.476;2022-08-24T07:40:32;5.43;;;2.47;;
42478;SDS011;28110;47.080;9.476;2022-08-24T07:42:58;10.40;;;2.40;;
42478;SDS011;28110;47.080;9.476;2022-08-24T07:45:25;10.50;;;2.47;;
42478;SDS011;28110;47.080;9.476;2022-08-24T07:47:52;4.60;;;2.33;;
42478;SDS011;28110;47.080;9.476;2022-08-24T07:50:18;6.22;;;3.00;;
42478;SDS011;28110;47.080;9.476;2022-08-24T07:52:44;3.63;;;2.73;;
42478;SDS011;28110;47.080;9.476;2022-08-24T07:55:11;6.47;;;2.47;;
42478;SDS011;28110;47.080;9.476;2022-08-24T07:57:38;5.38;;;2.50;;
42478;SDS011;28110;47.080;9.476;2022-08-24T08:00:07;3.78;;;2.40;;
42478;SDS011;28110;47.080;9.476;2022-08-24T08:02:35;6.97;;;2.50;;
42478;SDS011;28110;47.080;9.476;2022-08-24T08:05:01;4.55;;;2.50;;
42478;SDS011;28110;47.080;9.476;2022-08-24T08:07:28;4.57;;;2.43;;
42478;SDS011;28110;47.080;9.476;2022-08-24T08:09:53;5.63;;;2.40;;
42478;SDS011;28110;47.080;9.476;2022-08-24T08:12:19;2.80;;;2.50;;
42478;SDS011;28110;47.080;9.476;2022-08-24T08:14:44;4.53;;;2.60;;
42478;SDS011;28110;47.080;9.476;2022-08-24T08:17:10;6.18;;;2.50;;
42478;SDS011;28110;47.080;9.476;2022-08-24T08:19:37;5.07;;;2.10;;
42478;SDS011;28110;47.080;9.476;2022-08-24T08:22:03;6.80;;;2.53;;
42478;SDS011;28110;47.080;9.476;2022-08-24T08:24:47;4.75;;;2.47;;
42478;SDS011;28110;47.080;9.476;2022-08-24T08:27:14;9.10;;;2.63;;
42478;SDS011;28110;47.080;9.476;2022-08-24T08:29:41;5.20;;;2.30;;
42478;SDS011;28110;47.080;9.476;2022-08-24T08:32:07;3.25;;;2.30;;
42478;SDS011;28110;47.080;9.476;2022-08-24T08:34:35;3.83;;;2.60;;
42478;SDS011;28110;47.080;9.476;2022-08-24T08:37:01;4.85;;;2.42;;
42478;SDS011;28110;47.080;9.476;2022-08-24T08:39:28;3.58;;;2.28;;
42478;SDS011;28110;47.080;9.476;2022-08-24T08:41:58;3.20;;;2.70;;
42478;SDS011;28110;47.080;9.476;2022-08-24T08:50:25;4.10;;;2.30;;
42478;SDS011;28110;47.080;9.476;2022-08-24T08:53:10;3.90;;;2.47;;
42478;SDS011;28110;47.080;9.476;2022-08-24T08:56:08;6.22;;;2.33;;
42478;SDS011;28110;47.080;9.476;2022-08-24T08:59:16;3.60;;;2.33;;
42478;SDS011;28110;47.080;9.476;2022-08-24T09:18:16;7.82;;;2.53;;
42478;SDS011;28110;47.080;9.476;2022-08-24T09:42:29;4.85;;;3.00;;
42478;SDS011;28110;47.080;9.476;2022-08-24T09:50:59;8.20;;;3.40;;
42478;SDS011;28110;47.080;9.476;2022-08-24T09:56:42;5.78;;;3.10;;
42478;SDS011;28110;47.080;9.476;2022-08-24T10:01:51;3.20;;;2.90;;
42478;SDS011;28110;47.080;9.476;2022-08-24T10:04:42;7.15;;;3.03;;
42478;SDS011;28110;47.080;9.476;2022-08-24T10:07:17;6.00;;;3.20;;
42478;SDS011;28110;47.080;9.476;2022-08-24T10:10:02;10.55;;;3.58;;
42478;SDS011;28110;47.080;9.476;2022-08-24T10:12:59;4.82;;;2.55;;
42478;SDS011;28110;47.080;9.476;2022-08-24T10:15:37;3.10;;;2.60;;
42478;SDS011;28110;47.080;9.476;2022-08-24T10:21:24;7.18;;;2.67;;
42478;SDS011;28110;47.080;9.476;2022-08-24T10:24:33;4.07;;;2.30;;
42478;SDS011;28110;47.080;9.476;2022-08-24T10:27:03;2.92;;;2.58;;
42478;SDS011;28110;47.080;9.476;2022-08-24T10:29:51;4.23;;;2.27;;
42478;SDS011;28110;47.080;9.476;2022-08-24T10:35:13;4.25;;;2.38;;
42478;SDS011;28110;47.080;9.476;2022-08-24T10:46:49;5.82;;;2.17;;
42478;SDS011;28110;47.080;9.476;2022-08-24T10:55:27;4.03;;;2.17;;
42478;SDS011;28110;47.080;9.476;2022-08-24T11:01:12;3.85;;;2.30;;
42478;SDS011;28110;47.080;9.476;2022-08-24T11:04:08;3.15;;;2.55;;
42478;SDS011;28110;47.080;9.476;2022-08-24T11:06:38;6.50;;;2.00;;
42478;SDS011;28110;47.080;9.476;2022-08-24T11:09:08;6.07;;;2.45;;
42478;SDS011;28110;47.080;9.476;2022-08-24T11:11:35;3.87;;;2.60;;
42478;SDS011;28110;47.080;9.476;2022-08-24T11:16:41;2.40;;;1.98;;
42478;SDS011;28110;47.080;9.476;2022-08-24T11:21:51;5.53;;;2.08;;
42478;SDS011;28110;47.080;9.476;2022-08-24T11:26:55;5.28;;;2.70;;
42478;SDS011;28110;47.080;9.476;2022-08-24T11:29:53;3.63;;;2.30;;
42478;SDS011;28110;47.080;9.476;2022-08-24T11:34:53;2.40;;;2.20;;
42478;SDS011;28110;47.080;9.476;2022-08-24T11:37:22;3.43;;;2.30;;
42478;SDS011;28110;47.080;9.476;2022-08-24T11:39:54;5.05;;;2.22;;
42478;SDS011;28110;47.080;9.476;2022-08-24T11:42:29;12.73;;;2.63;;
42478;SDS011;28110;47.080;9.476;2022-08-24T11:56:11;5.82;;;2.53;;
42478;SDS011;28110;47.080;9.476;2022-08-24T12:01:48;3.10;;;2.10;;
42478;SDS011;28110;47.080;9.476;2022-08-24T12:12:50;3.70;;;2.00;;
42478;SDS011;28110;47.080;9.476;2022-08-24T12:15:19;3.90;;;1.95;;
42478;SDS011;28110;47.080;9.476;2022-08-24T12:17:59;2.83;;;1.98;;
42478;SDS011;28110;47.080;9.476;2022-08-24T12:20:42;2.50;;;2.07;;
42478;SDS011;28110;47.080;9.476;2022-08-24T12:23:34;2.22;;;1.90;;
42478;SDS011;28110;47.080;9.476;2022-08-24T12:26:07;3.28;;;1.88;;
42478;SDS011;28110;47.080;9.476;2022-08-24T12:28:47;5.22;;;2.50;;
42478;SDS011;28110;47.080;9.476;2022-08-24T12:31:49;3.00;;;2.10;;
42478;SDS011;28110;47.080;9.476;2022-08-24T12:34:15;4.83;;;2.30;;
42478;SDS011;28110;47.080;9.476;2022-08-24T12:36:53;3.45;;;2.33;;
42478;SDS011;28110;47.080;9.476;2022-08-24T12:39:21;3.10;;;2.10;;
42478;SDS011;28110;47.080;9.476;2022-08-24T12:44:25;3.22;;;2.15;;
42478;SDS011;28110;47.080;9.476;2022-08-24T12:46:58;3.63;;;2.00;;
42478;SDS011;28110;47.080;9.476;2022-08-24T12:49:26;5.07;;;2.30;;
42478;SDS011;28110;47.080;9.476;2022-08-24T12:58:04;4.82;;;1.77;;
42478;SDS011;28110;47.080;9.476;2022-08-24T13:03:07;2.65;;;2.40;;
42478;SDS011;28110;47.080;9.476;2022-08-24T13:05:48;4.18;;;2.15;;
42478;SDS011;28110;47.080;9.476;2022-08-24T13:08:31;3.17;;;2.07;;
42478;SDS011;28110;47.080;9.476;2022-08-24T13:11:10;3.40;;;2.08;;
42478;SDS011;28110;47.080;9.476;2022-08-24T13:16:46;5.72;;;2.13;;
42478;SDS011;28110;47.080;9.476;2022-08-24T13:21:48;4.27;;;1.90;;
42478;SDS011;28110;47.080;9.476;2022-08-24T13:26:57;4.07;;;2.00;;
42478;SDS011;28110;47.080;9.476;2022-08-24T13:29:35;2.13;;;1.70;;
42478;SDS011;28110;47.080;9.476;2022-08-24T13:32:14;3.42;;;1.75;;
42478;SDS011;28110;47.080;9.476;2022-08-24T13:34:47;4.13;;;1.95;;
42478;SDS011;28110;47.080;9.476;2022-08-24T13:37:19;5.60;;;1.88;;
42478;SDS011;28110;47.080;9.476;2022-08-24T13:44:58;2.70;;;1.52;;
42478;SDS011;28110;47.080;9.476;2022-08-24T13:58:24;3.85;;;1.98;;
42478;SDS011;28110;47.080;9.476;2022-08-24T14:12:13;2.65;;;2.00;;
42478;SDS011;28110;47.080;9.476;2022-08-24T14:15:09;3.30;;;1.80;;
42478;SDS011;28110;47.080;9.476;2022-08-24T14:20:47;2.28;;;1.60;;
42478;SDS011;28110;47.080;9.476;2022-08-24T14:23:46;4.03;;;1.80;;
42478;SDS011;28110;47.080;9.476;2022-08-24T14:31:39;3.67;;;1.80;;
42478;SDS011;28110;47.080;9.476;2022-08-24T14:39:57;1.80;;;1.70;;
42478;SDS011;28110;47.080;9.476;2022-08-24T14:42:46;2.53;;;1.53;;
42478;SDS011;28110;47.080;9.476;2022-08-24T14:56:43;4.43;;;1.60;;
42478;SDS011;28110;47.080;9.476;2022-08-24T14:59:32;2.35;;;1.60;;
42478;SDS011;28110;47.080;9.476;2022-08-24T15:02:34;5.45;;;1.60;;
42478;SDS011;28110;47.080;9.476;2022-08-24T15:05:20;1.98;;;1.80;;
42478;SDS011;28110;47.080;9.476;2022-08-24T15:10:55;2.40;;;1.70;;
42478;SDS011;28110;47.080;9.476;2022-08-24T15:13:38;5.63;;;1.95;;
42478;SDS011;28110;47.080;9.476;2022-08-24T15:16:24;3.38;;;1.85;;
42478;SDS011;28110;47.080;9.476;2022-08-24T15:19:03;4.13;;;1.73;;
42478;SDS011;28110;47.080;9.476;2022-08-24T15:29:53;5.53;;;1.50;;
42478;SDS011;28110;47.080;9.476;2022-08-24T15:32:21;3.47;;;1.77;;
42478;SDS011;28110;47.080;9.476;2022-08-24T15:34:51;4.32;;;1.70;;
42478;SDS011;28110;47.080;9.476;2022-08-24T15:37:28;5.03;;;1.60;;
42478;SDS011;28110;47.080;9.476;2022-08-24T15:39:56;3.55;;;1.90;;
42478;SDS011;28110;47.080;9.476;2022-08-24T15:42:22;4.00;;;1.60;;
42478;SDS011;28110;47.080;9.476;2022-08-24T15:44:48;3.00;;;1.63;;
42478;SDS011;28110;47.080;9.476;2022-08-24T15:47:28;2.42;;;2.20;;
42478;SDS011;28110;47.080;9.476;2022-08-24T15:49:57;3.07;;;1.70;;
42478;SDS011;28110;47.080;9.476;2022-08-24T15:55:43;4.00;;;1.50;;
42478;SDS011;28110;47.080;9.476;2022-08-24T16:00:58;3.53;;;2.10;;
42478;SDS011;28110;47.080;9.476;2022-08-24T16:03:53;3.47;;;1.67;;
42478;SDS011;28110;47.080;9.476;2022-08-24T16:09:00;1.98;;;1.55;;
42478;SDS011;28110;47.080;9.476;2022-08-24T16:11:48;4.88;;;1.83;;
42478;SDS011;28110;47.080;9.476;2022-08-24T16:14:33;4.43;;;1.77;;
42478;SDS011;28110;47.080;9.476;2022-08-24T16:19:51;2.00;;;1.63;;
42478;SDS011;28110;47.080;9.476;2022-08-24T16:22:27;4.68;;;1.98;;
42478;SDS011;28110;47.080;9.476;2022-08-24T16:30:40;3.37;;;1.60;;
42478;SDS011;28110;47.080;9.476;2022-08-24T16:33:09;3.15;;;1.80;;
42478;SDS011;28110;47.080;9.476;2022-08-24T16:35:59;2.88;;;1.40;;
42478;SDS011;28110;47.080;9.476;2022-08-24T16:38:27;4.47;;;1.90;;
42478;SDS011;28110;47.080;9.476;2022-08-24T16:41:01;4.20;;;1.67;;
42478;SDS011;28110;47.080;9.476;2022-08-24T16:43:28;3.70;;;1.43;;
42478;SDS011;28110;47.080;9.476;2022-08-24T16:45:55;2.80;;;1.50;;
42478;SDS011;28110;47.080;9.476;2022-08-24T16:48:22;8.23;;;2.35;;
42478;SDS011;28110;47.080;9.476;2022-08-24T16:50:47;3.33;;;1.70;;
42478;SDS011;28110;47.080;9.476;2022-08-24T16:53:13;3.13;;;1.70;;
42478;SDS011;28110;47.080;9.476;2022-08-24T16:55:39;3.33;;;1.90;;
42478;SDS011;28110;47.080;9.476;2022-08-24T16:58:05;3.25;;;1.55;;
42478;SDS011;28110;47.080;9.476;2022-08-24T17:00:30;2.63;;;1.87;;
42478;SDS011;28110;47.080;9.476;2022-08-24T17:02:56;4.33;;;1.80;;
42478;SDS011;28110;47.080;9.476;2022-08-24T17:05:22;3.07;;;2.13;;
42478;SDS011;28110;47.080;9.476;2022-08-24T17:07:47;2.97;;;1.60;;
42478;SDS011;28110;47.080;9.476;2022-08-24T17:10:15;4.20;;;1.58;;
42478;SDS011;28110;47.080;9.476;2022-08-24T17:12:43;4.10;;;1.83;;
42478;SDS011;28110;47.080;9.476;2022-08-24T17:15:10;3.83;;;1.53;;
42478;SDS011;28110;47.080;9.476;2022-08-24T17:17:37;4.20;;;1.65;;
42478;SDS011;28110;47.080;9.476;2022-08-24T17:20:05;2.22;;;1.60;;
42478;SDS011;28110;47.080;9.476;2022-08-24T17:22:36;2.78;;;1.80;;
42478;SDS011;28110;47.080;9.476;2022-08-24T17:25:02;3.30;;;1.80;;
42478;SDS011;28110;47.080;9.476;2022-08-24T17:27:29;2.35;;;1.65;;
42478;SDS011;28110;47.080;9.476;2022-08-24T17:29:57;3.75;;;1.90;;
42478;SDS011;28110;47.080;9.476;2022-08-24T17:32:24;1.85;;;1.65;;
42478;SDS011;28110;47.080;9.476;2022-08-24T17:34:49;2.93;;;1.60;;
42478;SDS011;28110;47.080;9.476;2022-08-24T17:37:15;2.42;;;1.60;;
42478;SDS011;28110;47.080;9.476;2022-08-24T17:39:41;5.97;;;2.00;;
42478;SDS011;28110;47.080;9.476;2022-08-24T17:42:07;3.00;;;1.67;;
42478;SDS011;28110;47.080;9.476;2022-08-24T17:44:33;4.22;;;1.80;;
42478;SDS011;28110;47.080;9.476;2022-08-24T17:47:01;1.60;;;1.50;;
42478;SDS011;28110;47.080;9.476;2022-08-24T17:49:28;3.67;;;1.70;;
42478;SDS011;28110;47.080;9.476;2022-08-24T17:51:55;2.25;;;1.40;;
42478;SDS011;28110;47.080;9.476;2022-08-24T17:54:22;2.60;;;1.70;;
42478;SDS011;28110;47.080;9.476;2022-08-24T17:56:48;6.53;;;1.75;;
42478;SDS011;28110;47.080;9.476;2022-08-24T17:59:17;3.05;;;1.80;;
42478;SDS011;28110;47.080;9.476;2022-08-24T18:01:54;2.50;;;1.60;;
42478;SDS011;28110;47.080;9.476;2022-08-24T18:04:20;2.80;;;1.40;;
42478;SDS011;28110;47.080;9.476;2022-08-24T18:06:50;4.68;;;1.80;;
42478;SDS011;28110;47.080;9.476;2022-08-24T18:09:38;2.65;;;1.60;;
42478;SDS011;28110;47.080;9.476;2022-08-24T18:12:11;2.22;;;1.42;;
42478;SDS011;28110;47.080;9.476;2022-08-24T18:14:38;2.90;;;1.70;;
42478;SDS011;28110;47.080;9.476;2022-08-24T18:17:05;2.60;;;1.60;;
42478;SDS011;28110;47.080;9.476;2022-08-24T18:19:34;2.50;;;1.67;;
42478;SDS011;28110;47.080;9.476;2022-08-24T18:22:00;1.83;;;1.35;;
42478;SDS011;28110;47.080;9.476;2022-08-24T18:24:27;1.70;;;1.60;;
42478;SDS011;28110;47.080;9.476;2022-08-24T18:27:00;4.63;;;1.60;;
42478;SDS011;28110;47.080;9.476;2022-08-24T18:29:28;2.90;;;1.50;;
42478;SDS011;28110;47.080;9.476;2022-08-24T18:31:55;4.20;;;2.00;;
42478;SDS011;28110;47.080;9.476;2022-08-24T18:34:22;3.45;;;1.67;;
42478;SDS011;28110;47.080;9.476;2022-08-24T18:36:48;2.95;;;1.60;;
42478;SDS011;28110;47.080;9.476;2022-08-24T18:39:14;1.93;;;1.60;;